Stk-1004 — UBEM — position and weather

sailwx.info

Track history (hours):
 
Tides and Currents Weather Stations Pressure Air Temp Water Temp Dewpoint Dewpoint Depression Visibility Wind Speed Wind Dir Waves Ship Positions

Stk-1004

Last reported at 2017-Aug-16 01:12 UTC. Time now 2017-Aug-20 19:17 UTC.
Position N 59°50' E 030°34'.

Length 82 m; draft 2.5 m.

Type: Cargo ship. MMSI: 273439130.

Date/timePositionNaut miles runAvg speedWind from/ knotsBaromVisibWave heightAir tempDewpointWater temp
2017-Aug-16 01:12N 59°50' E 030°34'1 3.1
2017-Aug-16 00:58N 59°50' E 030°33'2 4.5
2017-Aug-16 00:29N 59°52' E 030°29'2 4.8
2017-Aug-15 23:59N 59°54' E 030°27'3 5.8
2017-Aug-15 23:30N 59°56' E 030°24'2 3.6
2017-Aug-15 23:00N 59°57' E 030°21'2 4.3
2017-Aug-15 22:30N 59°56' E 030°17'0 0.0
2017-Aug-15 22:00N 59°56' E 030°17'0 0.0
2017-Aug-15 21:30N 59°56' E 030°17'0 0.0
2017-Aug-15 21:00N 59°56' E 030°17'0 0.0
2017-Aug-15 20:30N 59°56' E 030°17'0 0.0
2017-Aug-15 20:00N 59°56' E 030°17'0 0.0
2017-Aug-15 19:30N 59°56' E 030°17'0 0.0
2017-Aug-15 19:00N 59°56' E 030°17'0 0.0
2017-Aug-15 18:30N 59°56' E 030°17'0 0.0
2017-Aug-15 18:00N 59°56' E 030°17'0 0.0
2017-Aug-15 17:30N 59°56' E 030°17'0 0.0
2017-Aug-15 16:59N 59°56' E 030°17'0 0.0
2017-Aug-15 09:46N 59°56' E 030°17'0 0.0
2017-Aug-15 09:09N 59°56' E 030°17'0 0.0
2017-Aug-15 08:59N 59°56' E 030°17'0 0.0
2017-Aug-15 08:27N 59°56' E 030°17'0 0.0
2017-Aug-15 07:19N 59°56' E 030°17'63 6.7
2017-Aug-14 21:54N 60°20' E 028°20'3 7.2
2017-Aug-14 21:27N 60°23' E 028°20'4 7.8
2017-Aug-14 20:57N 60°27' E 028°20'3 7.6
2017-Aug-14 20:30N 60°31' E 028°21'5 8.4
2017-Aug-14 19:58N 60°35' E 028°25'3 6.6
2017-Aug-14 19:30N 60°36' E 028°30'3 6.6
2017-Aug-14 19:00N 60°38' E 028°35'4 7.8
2017-Aug-14 18:30N 60°41' E 028°41'3 6.4
2017-Aug-14 18:00N 60°44' E 028°41'3 6.3
2017-Aug-14 17:30N 60°47' E 028°43'2 3.4
2017-Aug-14 17:00N 60°49' E 028°44'1 2.6
2017-Aug-14 16:30N 60°50' E 028°44'2 3.5
2017-Aug-14 16:00N 60°51' E 028°42'2 4.3
2017-Aug-14 15:30N 60°53' E 028°39'1 2.1
2017-Aug-14 15:00N 60°54' E 028°37'1 1.7
2017-Aug-14 14:30N 60°54' E 028°37'0 0.0
2017-Aug-14 14:00N 60°54' E 028°37'1 2.9
2017-Aug-14 13:30N 60°56' E 028°36'3 6.6
2017-Aug-14 13:00N 60°58' E 028°31'3 6.4
2017-Aug-14 12:30N 61°01' E 028°27'2 4.6
2017-Aug-14 12:00N 61°02' E 028°24'2 4.8
2017-Aug-14 11:30N 61°03' E 028°20'1 2.0
2017-Aug-14 11:00N 61°04' E 028°18'1 2.8
2017-Aug-14 10:30N 61°05' E 028°16'1 1.2
2017-Aug-14 10:01N 61°04' E 028°15'0 0.0
2017-Aug-14 09:31N 61°04' E 028°15'0 0.0
2017-Aug-14 09:00N 61°04' E 028°15'0 0.0
2017-Aug-14 08:31N 61°04' E 028°15'0 0.0
2017-Aug-14 08:01N 61°04' E 028°15'0 0.0
2017-Aug-14 07:31N 61°04' E 028°15'0 0.0
2017-Aug-14 07:01N 61°04' E 028°15'0 0.0
2017-Aug-14 06:31N 61°04' E 028°15'0 0.0
2017-Aug-14 06:00N 61°04' E 028°15'0 0.0
2017-Aug-14 05:31N 61°04' E 028°15'0 0.0
2017-Aug-14 05:01N 61°04' E 028°15'0 0.0
2017-Aug-14 04:31N 61°04' E 028°15'0 0.0
2017-Aug-14 04:00N 61°04' E 028°15'0 0.0
2017-Aug-14 03:31N 61°04' E 028°15'0 0.0
2017-Aug-14 03:00N 61°04' E 028°15'0 0.0
2017-Aug-14 02:30N 61°04' E 028°15'0 0.0
2017-Aug-14 02:01N 61°04' E 028°15'0 0.0
2017-Aug-14 01:30N 61°04' E 028°15'0 0.0
2017-Aug-14 01:00N 61°04' E 028°15'1 1.8
2017-Aug-14 00:31N 61°05' E 028°16'1 2.2
2017-Aug-14 00:01N 61°04' E 028°18'1 1.3
2017-Aug-13 23:31N 61°04' E 028°19'2 4.9
2017-Aug-13 23:01N 61°03' E 028°24'1 1.5
2017-Aug-13 22:31N 61°02' E 028°25'2 4.8
2017-Aug-13 22:00N 61°00' E 028°28'2 5.0
2017-Aug-13 21:31N 60°58' E 028°31'3 5.2
2017-Aug-13 21:01N 60°57' E 028°35'2 4.7
2017-Aug-13 20:31N 60°55' E 028°37'0 0.2
2017-Aug-13 20:00N 60°54' E 028°37'1 1.7
2017-Aug-13 19:31N 60°54' E 028°37'1 2.0
2017-Aug-13 19:01N 60°53' E 028°39'1 1.4
2017-Aug-13 18:30N 60°53' E 028°40'3 6.2
2017-Aug-13 18:01N 60°50' E 028°44'1 1.1
2017-Aug-13 17:31N 60°50' E 028°44'1 2.1
2017-Aug-13 17:00N 60°49' E 028°44'0 0.1
2017-Aug-13 16:31N 60°49' E 028°44'0 0.0
2017-Aug-13 16:00N 60°49' E 028°44'0 0.0
2017-Aug-13 15:31N 60°49' E 028°44'0 0.0
2017-Aug-13 15:01N 60°49' E 028°44'1 2.7
2017-Aug-13 14:31N 60°47' E 028°43'3 6.2
2017-Aug-13 14:01N 60°44' E 028°41'3 6.1
2017-Aug-13 13:31N 60°41' E 028°42'4 7.5
2017-Aug-13 13:01N 60°39' E 028°36'3 5.6
2017-Aug-13 12:30N 60°37' E 028°33'3 6.9
2017-Aug-13 12:00N 60°35' E 028°27'3 7.0
2017-Aug-13 11:31N 60°32' E 028°22'4 7.7
2017-Aug-13 11:01N 60°28' E 028°21'4 7.8
2017-Aug-13 10:31N 60°24' E 028°20'4 8.1
2017-Aug-13 10:01N 60°20' E 028°22'4 8.1
2017-Aug-13 09:31N 60°17' E 028°27'4 7.8
2017-Aug-13 09:00N 60°15' E 028°33'4 7.6
2017-Aug-13 08:31N 60°12' E 028°38'4 7.6
2017-Aug-13 08:00N 60°10' E 028°44'4 7.3
2017-Aug-13 07:31N 60°08' E 028°50'4 7.1
2017-Aug-13 06:57N 60°06' E 028°57'40 6.6
2017-Aug-13 00:56N 59°54' E 030°13'3 7.4
2017-Aug-13 00:30N 59°56' E 030°17'4 7.2
2017-Aug-13 00:00N 59°57' E 030°24'2 4.1
2017-Aug-12 23:30N 59°55' E 030°24'0 0.2
2017-Aug-12 23:00N 59°55' E 030°24'0 0.0
2017-Aug-12 22:30N 59°55' E 030°24'0 0.0
2017-Aug-12 22:00N 59°55' E 030°24'0 0.0
2017-Aug-12 21:30N 59°55' E 030°24'0 0.0
2017-Aug-12 21:00N 59°55' E 030°24'0 0.0
2017-Aug-12 20:28N 59°55' E 030°24'0 0.0
2017-Aug-12 20:00N 59°55' E 030°24'0 0.0
2017-Aug-12 19:30N 59°55' E 030°24'0 0.0
2017-Aug-12 19:00N 59°55' E 030°24'0 0.0
2017-Aug-12 18:30N 59°55' E 030°24'0 0.0
2017-Aug-12 18:00N 59°55' E 030°24'0 0.0
2017-Aug-12 17:30N 59°55' E 030°24'0 0.0
2017-Aug-12 17:00N 59°55' E 030°24'0 0.0
2017-Aug-12 16:30N 59°55' E 030°24'0 0.0
2017-Aug-12 16:00N 59°55' E 030°24'0 0.0
2017-Aug-12 15:30N 59°55' E 030°24'0 0.0
2017-Aug-12 15:00N 59°55' E 030°24'0 0.0
2017-Aug-12 14:26N 59°55' E 030°24'0 0.0
2017-Aug-12 13:56N 59°55' E 030°24'0 0.0
2017-Aug-12 13:29N 59°55' E 030°24'0 0.3
2017-Aug-12 13:01N 59°55' E 030°24'5 8.9
2017-Aug-12 12:26N 59°51' E 030°30'  
Track history (hours):
 
Tides and Currents Weather Stations Pressure Air Temp Water Temp Dewpoint Dewpoint Depression Visibility Wind Speed Wind Dir Waves Ship Positions

Stk-1004

Last reported at 2017-Aug-16 01:12 UTC. Time now 2017-Aug-20 19:17 UTC.
Position N 59°50' E 030°34'.

Length 82 m; draft 2.5 m.

Type: Cargo ship. MMSI: 273439130.

Date/timePositionNaut miles runAvg speedWind from/ knotsBaromVisibWave heightAir tempDewpointWater temp
2017-Aug-16 01:12N 59°50' E 030°34'1 3.1
2017-Aug-16 00:58N 59°50' E 030°33'2 4.5
2017-Aug-16 00:29N 59°52' E 030°29'2 4.8
2017-Aug-15 23:59N 59°54' E 030°27'3 5.8
2017-Aug-15 23:30N 59°56' E 030°24'2 3.6
2017-Aug-15 23:00N 59°57' E 030°21'2 4.3
2017-Aug-15 22:30N 59°56' E 030°17'0 0.0
2017-Aug-15 22:00N 59°56' E 030°17'0 0.0
2017-Aug-15 21:30N 59°56' E 030°17'0 0.0
2017-Aug-15 21:00N 59°56' E 030°17'0 0.0
2017-Aug-15 20:30N 59°56' E 030°17'0 0.0
2017-Aug-15 20:00N 59°56' E 030°17'0 0.0
2017-Aug-15 19:30N 59°56' E 030°17'0 0.0
2017-Aug-15 19:00N 59°56' E 030°17'0 0.0
2017-Aug-15 18:30N 59°56' E 030°17'0 0.0
2017-Aug-15 18:00N 59°56' E 030°17'0 0.0
2017-Aug-15 17:30N 59°56' E 030°17'0 0.0
2017-Aug-15 16:59N 59°56' E 030°17'0 0.0
2017-Aug-15 09:46N 59°56' E 030°17'0 0.0
2017-Aug-15 09:09N 59°56' E 030°17'0 0.0
2017-Aug-15 08:59N 59°56' E 030°17'0 0.0
2017-Aug-15 08:27N 59°56' E 030°17'0 0.0
2017-Aug-15 07:19N 59°56' E 030°17'63 6.7
2017-Aug-14 21:54N 60°20' E 028°20'3 7.2
2017-Aug-14 21:27N 60°23' E 028°20'4 7.8
2017-Aug-14 20:57N 60°27' E 028°20'3 7.6
2017-Aug-14 20:30N 60°31' E 028°21'5 8.4
2017-Aug-14 19:58N 60°35' E 028°25'3 6.6
2017-Aug-14 19:30N 60°36' E 028°30'3 6.6
2017-Aug-14 19:00N 60°38' E 028°35'4 7.8
2017-Aug-14 18:30N 60°41' E 028°41'3 6.4
2017-Aug-14 18:00N 60°44' E 028°41'3 6.3
2017-Aug-14 17:30N 60°47' E 028°43'2 3.4
2017-Aug-14 17:00N 60°49' E 028°44'1 2.6
2017-Aug-14 16:30N 60°50' E 028°44'2 3.5
2017-Aug-14 16:00N 60°51' E 028°42'2 4.3
2017-Aug-14 15:30N 60°53' E 028°39'1 2.1
2017-Aug-14 15:00N 60°54' E 028°37'1 1.7
2017-Aug-14 14:30N 60°54' E 028°37'0 0.0
2017-Aug-14 14:00N 60°54' E 028°37'1 2.9
2017-Aug-14 13:30N 60°56' E 028°36'3 6.6
2017-Aug-14 13:00N 60°58' E 028°31'3 6.4
2017-Aug-14 12:30N 61°01' E 028°27'2 4.6
2017-Aug-14 12:00N 61°02' E 028°24'2 4.8
2017-Aug-14 11:30N 61°03' E 028°20'1 2.0
2017-Aug-14 11:00N 61°04' E 028°18'1 2.8
2017-Aug-14 10:30N 61°05' E 028°16'1 1.2
2017-Aug-14 10:01N 61°04' E 028°15'0 0.0
2017-Aug-14 09:31N 61°04' E 028°15'0 0.0
2017-Aug-14 09:00N 61°04' E 028°15'0 0.0
2017-Aug-14 08:31N 61°04' E 028°15'0 0.0
2017-Aug-14 08:01N 61°04' E 028°15'0 0.0
2017-Aug-14 07:31N 61°04' E 028°15'0 0.0
2017-Aug-14 07:01N 61°04' E 028°15'0 0.0
2017-Aug-14 06:31N 61°04' E 028°15'0 0.0
2017-Aug-14 06:00N 61°04' E 028°15'0 0.0
2017-Aug-14 05:31N 61°04' E 028°15'0 0.0
2017-Aug-14 05:01N 61°04' E 028°15'0 0.0
2017-Aug-14 04:31N 61°04' E 028°15'0 0.0
2017-Aug-14 04:00N 61°04' E 028°15'0 0.0
2017-Aug-14 03:31N 61°04' E 028°15'0 0.0
2017-Aug-14 03:00N 61°04' E 028°15'0 0.0
2017-Aug-14 02:30N 61°04' E 028°15'0 0.0
2017-Aug-14 02:01N 61°04' E 028°15'0 0.0
2017-Aug-14 01:30N 61°04' E 028°15'0 0.0
2017-Aug-14 01:00N 61°04' E 028°15'1 1.8
2017-Aug-14 00:31N 61°05' E 028°16'1 2.2
2017-Aug-14 00:01N 61°04' E 028°18'1 1.3
2017-Aug-13 23:31N 61°04' E 028°19'2 4.9
2017-Aug-13 23:01N 61°03' E 028°24'1 1.5
2017-Aug-13 22:31N 61°02' E 028°25'2 4.8
2017-Aug-13 22:00N 61°00' E 028°28'2 5.0
2017-Aug-13 21:31N 60°58' E 028°31'3 5.2
2017-Aug-13 21:01N 60°57' E 028°35'2 4.7
2017-Aug-13 20:31N 60°55' E 028°37'0 0.2
2017-Aug-13 20:00N 60°54' E 028°37'1 1.7
2017-Aug-13 19:31N 60°54' E 028°37'1 2.0
2017-Aug-13 19:01N 60°53' E 028°39'1 1.4
2017-Aug-13 18:30N 60°53' E 028°40'3 6.2
2017-Aug-13 18:01N 60°50' E 028°44'1 1.1
2017-Aug-13 17:31N 60°50' E 028°44'1 2.1
2017-Aug-13 17:00N 60°49' E 028°44'0 0.1
2017-Aug-13 16:31N 60°49' E 028°44'0 0.0
2017-Aug-13 16:00N 60°49' E 028°44'0 0.0
2017-Aug-13 15:31N 60°49' E 028°44'0 0.0
2017-Aug-13 15:01N 60°49' E 028°44'1 2.7
2017-Aug-13 14:31N 60°47' E 028°43'3 6.2
2017-Aug-13 14:01N 60°44' E 028°41'3 6.1
2017-Aug-13 13:31N 60°41' E 028°42'4 7.5
2017-Aug-13 13:01N 60°39' E 028°36'3 5.6
2017-Aug-13 12:30N 60°37' E 028°33'3 6.9
2017-Aug-13 12:00N 60°35' E 028°27'3 7.0
2017-Aug-13 11:31N 60°32' E 028°22'4 7.7
2017-Aug-13 11:01N 60°28' E 028°21'4 7.8
2017-Aug-13 10:31N 60°24' E 028°20'4 8.1
2017-Aug-13 10:01N 60°20' E 028°22'4 8.1
2017-Aug-13 09:31N 60°17' E 028°27'4 7.8
2017-Aug-13 09:00N 60°15' E 028°33'4 7.6
2017-Aug-13 08:31N 60°12' E 028°38'4 7.6
2017-Aug-13 08:00N 60°10' E 028°44'4 7.3
2017-Aug-13 07:31N 60°08' E 028°50'4 7.1
2017-Aug-13 06:57N 60°06' E 028°57'40 6.6
2017-Aug-13 00:56N 59°54' E 030°13'3 7.4
2017-Aug-13 00:30N 59°56' E 030°17'4 7.2
2017-Aug-13 00:00N 59°57' E 030°24'2 4.1
2017-Aug-12 23:30N 59°55' E 030°24'0 0.2
2017-Aug-12 23:00N 59°55' E 030°24'0 0.0
2017-Aug-12 22:30N 59°55' E 030°24'0 0.0
2017-Aug-12 22:00N 59°55' E 030°24'0 0.0
2017-Aug-12 21:30N 59°55' E 030°24'0 0.0
2017-Aug-12 21:00N 59°55' E 030°24'0 0.0
2017-Aug-12 20:28N 59°55' E 030°24'0 0.0
2017-Aug-12 20:00N 59°55' E 030°24'0 0.0
2017-Aug-12 19:30N 59°55' E 030°24'0 0.0
2017-Aug-12 19:00N 59°55' E 030°24'0 0.0
2017-Aug-12 18:30N 59°55' E 030°24'0 0.0
2017-Aug-12 18:00N 59°55' E 030°24'0 0.0
2017-Aug-12 17:30N 59°55' E 030°24'0 0.0
2017-Aug-12 17:00N 59°55' E 030°24'0 0.0
2017-Aug-12 16:30N 59°55' E 030°24'0 0.0
2017-Aug-12 16:00N 59°55' E 030°24'0 0.0
2017-Aug-12 15:30N 59°55' E 030°24'0 0.0
2017-Aug-12 15:00N 59°55' E 030°24'0 0.0
2017-Aug-12 14:26N 59°55' E 030°24'0 0.0
2017-Aug-12 13:56N 59°55' E 030°24'0 0.0
2017-Aug-12 13:29N 59°55' E 030°24'0 0.3
2017-Aug-12 13:01N 59°55' E 030°24'5 8.9
2017-Aug-12 12:26N 59°51' E 030°30'  

Dump ship's entire track history